createdAt,value
2022-09-23T00:00:38.638Z,0.00
2022-09-23T00:01:39.622Z,0.00
2022-09-23T00:02:40.481Z,0.00
2022-09-23T00:03:41.344Z,0.00
2022-09-23T00:04:42.259Z,0.00
2022-09-23T00:05:43.273Z,0.00
2022-09-23T00:06:44.078Z,0.00
2022-09-23T00:07:44.963Z,0.00
2022-09-23T00:08:45.852Z,0.00
2022-09-23T00:09:46.760Z,0.00
2022-09-23T00:10:47.658Z,0.00
2022-09-23T00:11:48.591Z,0.00
2022-09-23T00:12:49.471Z,0.00
2022-09-23T00:13:50.376Z,0.00
2022-09-23T00:14:51.281Z,0.00
2022-09-23T00:15:52.174Z,0.00
2022-09-23T00:16:53.288Z,0.00
2022-09-23T00:17:53.729Z,0.00
2022-09-23T00:18:54.587Z,0.00
2022-09-23T00:19:55.485Z,0.00
2022-09-23T00:20:56.386Z,0.00
2022-09-23T00:21:57.248Z,0.00
2022-09-23T00:22:58.130Z,0.00
2022-09-23T00:23:59.071Z,0.00
2022-09-23T00:24:59.972Z,0.00
2022-09-23T00:26:00.855Z,0.00
2022-09-23T00:27:01.734Z,0.00
2022-09-23T00:28:02.628Z,0.00
2022-09-23T00:29:03.502Z,0.00
2022-09-23T00:30:04.397Z,0.00
2022-09-23T00:31:05.352Z,0.00
2022-09-23T00:32:05.792Z,0.00
2022-09-23T00:33:06.714Z,0.00
2022-09-23T00:34:07.557Z,0.00
2022-09-23T00:35:08.450Z,0.00
2022-09-23T00:36:09.351Z,0.00
2022-09-23T00:37:10.218Z,0.00
2022-09-23T00:38:11.101Z,0.00
2022-09-23T00:39:11.987Z,0.00
2022-09-23T00:40:12.902Z,0.00
2022-09-23T00:41:13.776Z,0.00
2022-09-23T00:42:14.291Z,0.00
2022-09-23T00:43:15.172Z,0.00
2022-09-23T00:44:16.068Z,0.00
2022-09-23T00:45:16.951Z,0.00
2022-09-23T00:46:17.906Z,0.00
2022-09-23T00:47:18.769Z,0.00
2022-09-23T00:48:19.666Z,0.00
2022-09-23T00:49:20.564Z,0.00
2022-09-23T00:50:21.460Z,0.00
2022-09-23T00:51:22.377Z,0.00
2022-09-23T00:52:23.263Z,0.00
2022-09-23T00:53:24.162Z,0.00
2022-09-23T00:54:25.088Z,0.00
2022-09-23T00:55:25.969Z,0.00
2022-09-23T00:56:26.872Z,0.00
2022-09-23T00:57:27.773Z,0.00
2022-09-23T00:58:28.677Z,0.00
2022-09-23T00:59:29.595Z,0.00
2022-09-23T01:00:30.495Z,0.00
2022-09-23T01:01:31.476Z,0.00
2022-09-23T01:02:32.368Z,0.00
2022-09-23T01:03:33.192Z,0.00
2022-09-23T01:04:34.105Z,0.00
2022-09-23T01:05:34.995Z,0.00
2022-09-23T01:06:35.920Z,0.00
2022-09-23T01:07:36.809Z,0.00
2022-09-23T01:08:37.712Z,0.00
2022-09-23T01:09:38.614Z,0.00
2022-09-23T01:10:39.515Z,0.00
2022-09-23T01:11:40.412Z,0.00
2022-09-23T01:12:41.294Z,0.00
2022-09-23T01:13:42.180Z,0.00
2022-09-23T01:14:43.079Z,0.00
2022-09-23T01:15:43.984Z,0.00
2022-09-23T01:16:44.943Z,0.00
2022-09-23T01:17:45.806Z,0.00
2022-09-23T01:18:46.677Z,0.00
2022-09-23T01:19:47.600Z,0.00
2022-09-23T01:20:48.466Z,0.00
2022-09-23T01:21:49.375Z,0.00
2022-09-23T01:22:50.266Z,0.00
2022-09-23T01:23:51.167Z,0.00
2022-09-23T01:24:52.078Z,0.00
2022-09-23T01:25:52.977Z,0.00
2022-09-23T01:26:53.870Z,0.00
2022-09-23T01:27:54.777Z,0.00
2022-09-23T01:28:55.671Z,0.00
2022-09-23T01:29:56.572Z,0.00
2022-09-23T01:30:57.562Z,0.00
2022-09-23T01:31:58.446Z,0.00
2022-09-23T01:32:59.329Z,0.00
2022-09-23T01:34:00.206Z,0.00
2022-09-23T01:35:01.101Z,0.00
2022-09-23T01:36:01.991Z,0.00
2022-09-23T01:37:03.037Z,0.00
2022-09-23T01:38:03.843Z,0.00
2022-09-23T01:39:04.744Z,0.00
2022-09-23T01:40:05.708Z,0.00
2022-09-23T01:41:06.551Z,0.00
2022-09-23T01:42:07.448Z,0.00
2022-09-23T01:43:08.319Z,0.00
2022-09-23T01:44:09.218Z,0.00
2022-09-23T01:45:10.109Z,0.00
2022-09-23T01:46:11.005Z,0.00
2022-09-23T01:47:11.882Z,0.00
2022-09-23T01:48:12.807Z,0.00
2022-09-23T01:49:13.657Z,0.00
2022-09-23T01:50:14.541Z,0.00
2022-09-23T01:51:15.428Z,0.00
2022-09-23T01:52:16.326Z,0.00
2022-09-23T01:53:17.203Z,0.00
2022-09-23T01:54:18.097Z,0.00
2022-09-23T01:55:18.969Z,0.00
2022-09-23T01:56:19.852Z,0.00
2022-09-23T01:57:20.736Z,0.00
2022-09-23T01:58:21.622Z,0.00
2022-09-23T01:59:22.514Z,0.00
2022-09-23T02:00:23.399Z,0.00
2022-09-23T02:01:24.328Z,0.00
2022-09-23T02:02:25.276Z,0.00
2022-09-23T02:03:26.129Z,0.00
2022-09-23T02:04:27.021Z,0.00
2022-09-23T02:05:27.905Z,0.00
2022-09-23T02:06:28.788Z,0.00
2022-09-23T02:07:29.693Z,0.00
2022-09-23T02:08:30.559Z,0.00
2022-09-23T02:09:31.447Z,0.00
2022-09-23T02:10:32.331Z,0.00
2022-09-23T02:11:33.215Z,0.00
2022-09-23T02:12:34.099Z,0.00
2022-09-23T02:13:34.990Z,0.00
2022-09-23T02:14:35.873Z,0.00
2022-09-23T02:15:36.757Z,0.00
2022-09-23T02:16:37.683Z,0.00
2022-09-23T02:17:38.535Z,0.00
2022-09-23T02:18:39.419Z,0.00
2022-09-23T02:19:40.323Z,0.00
2022-09-23T02:20:41.203Z,0.00
2022-09-23T02:21:42.086Z,0.00
2022-09-23T02:22:42.988Z,0.00
2022-09-23T02:23:43.850Z,0.00
2022-09-23T02:24:44.743Z,0.00
2022-09-23T02:25:45.634Z,0.00
2022-09-23T02:26:46.508Z,0.00
2022-09-23T02:27:47.398Z,0.00
2022-09-23T02:28:48.314Z,0.00
2022-09-23T02:29:49.214Z,0.00
2022-09-23T02:30:50.104Z,0.00
2022-09-23T02:31:51.030Z,0.00
2022-09-23T02:32:51.916Z,0.00
2022-09-23T02:33:52.812Z,0.00
2022-09-23T02:34:53.741Z,0.00
2022-09-23T02:35:54.617Z,0.00
2022-09-23T02:36:55.521Z,0.00
2022-09-23T02:37:56.429Z,0.00
2022-09-23T02:38:57.293Z,0.00
2022-09-23T02:39:58.190Z,0.00
2022-09-23T02:40:59.072Z,0.00
2022-09-23T02:41:59.952Z,0.00
2022-09-23T02:43:00.839Z,0.00
2022-09-23T02:44:01.777Z,0.00
2022-09-23T02:45:02.612Z,0.00
2022-09-23T02:46:03.571Z,0.00
2022-09-23T02:47:04.416Z,0.00
2022-09-23T02:48:05.297Z,0.00
2022-09-23T02:49:06.179Z,0.00
2022-09-23T02:50:07.078Z,0.00
2022-09-23T02:51:07.957Z,0.00
2022-09-23T02:52:08.848Z,0.00
2022-09-23T02:53:09.739Z,0.00
2022-09-23T02:54:10.612Z,0.00
2022-09-23T02:55:11.497Z,0.00
2022-09-23T02:56:12.380Z,0.00
2022-09-23T02:57:13.263Z,0.00
2022-09-23T02:58:14.157Z,0.00
2022-09-23T02:59:15.057Z,0.00
2022-09-23T03:00:15.928Z,0.00
2022-09-23T03:01:16.933Z,0.00
2022-09-23T03:02:17.901Z,0.00
2022-09-23T03:03:18.749Z,0.00
2022-09-23T03:04:19.644Z,0.00
2022-09-23T03:05:20.528Z,0.00
2022-09-23T03:06:21.418Z,0.00
2022-09-23T03:07:22.295Z,0.00
2022-09-23T03:08:23.191Z,0.00
2022-09-23T03:09:24.069Z,0.00
2022-09-23T03:10:24.953Z,0.00
2022-09-23T03:11:25.840Z,0.00
2022-09-23T03:12:26.715Z,0.00
2022-09-23T03:13:29.447Z,0.00
2022-09-23T03:14:28.458Z,0.00
2022-09-23T03:15:29.343Z,0.00
2022-09-23T03:16:30.287Z,0.00
2022-09-23T03:17:31.190Z,0.00
2022-09-23T03:18:32.058Z,0.00
2022-09-23T03:19:32.958Z,0.00
2022-09-23T03:20:33.845Z,0.00
2022-09-23T03:21:34.731Z,0.00
2022-09-23T03:22:35.609Z,0.00
2022-09-23T03:23:36.506Z,0.00
2022-09-23T03:24:37.379Z,0.00
2022-09-23T03:25:38.270Z,0.00
2022-09-23T03:26:39.150Z,0.00
2022-09-23T03:27:40.042Z,0.00
2022-09-23T03:28:40.914Z,0.00
2022-09-23T03:29:41.798Z,0.00
2022-09-23T03:30:42.682Z,0.00
2022-09-23T03:31:43.626Z,0.00
2022-09-23T03:32:44.468Z,0.00
2022-09-23T03:33:45.374Z,0.00
2022-09-23T03:34:46.288Z,0.00
2022-09-23T03:35:47.183Z,0.00
2022-09-23T03:36:48.068Z,0.00
2022-09-23T03:37:48.972Z,0.00
2022-09-23T03:38:49.896Z,0.00
2022-09-23T03:39:50.769Z,0.00
2022-09-23T03:40:51.707Z,0.00
2022-09-23T03:41:52.552Z,0.00
2022-09-23T03:42:53.425Z,0.00
2022-09-23T03:43:54.326Z,0.00
2022-09-23T03:44:55.220Z,0.00
2022-09-23T03:45:56.140Z,0.00
2022-09-23T03:46:57.017Z,0.00
2022-09-23T03:47:57.914Z,0.00
2022-09-23T03:48:58.794Z,0.00
2022-09-23T03:49:59.695Z,0.00
2022-09-23T03:51:00.573Z,0.00
2022-09-23T03:52:01.467Z,0.00
2022-09-23T03:53:02.342Z,0.00
2022-09-23T03:54:03.254Z,0.00
2022-09-23T03:55:04.130Z,0.00
2022-09-23T03:56:05.016Z,0.00
2022-09-23T03:57:05.899Z,0.00
2022-09-23T03:58:06.783Z,0.00
2022-09-23T03:59:07.667Z,0.00
2022-09-23T04:00:08.561Z,0.00
2022-09-23T04:01:09.479Z,0.00
2022-09-23T04:02:10.371Z,0.00
2022-09-23T04:03:12.041Z,0.00
2022-09-23T04:04:11.958Z,0.00
2022-09-23T04:05:12.842Z,0.00
2022-09-23T04:06:13.722Z,0.00
2022-09-23T04:07:14.612Z,0.00
2022-09-23T04:08:15.482Z,0.00
2022-09-23T04:09:16.388Z,0.00
2022-09-23T04:10:17.260Z,0.00
2022-09-23T04:11:18.143Z,0.00
2022-09-23T04:12:19.033Z,0.00
2022-09-23T04:13:19.909Z,0.00
2022-09-23T04:14:20.802Z,0.00
2022-09-23T04:15:21.689Z,0.00
2022-09-23T04:16:22.602Z,0.00
2022-09-23T04:17:23.466Z,0.00
2022-09-23T04:18:24.370Z,0.00
2022-09-23T04:19:25.285Z,0.00
2022-09-23T04:20:26.174Z,0.00
2022-09-23T04:21:27.073Z,0.00
2022-09-23T04:22:27.990Z,0.00
2022-09-23T04:23:28.884Z,0.00
2022-09-23T04:24:29.877Z,0.00
2022-09-23T04:25:30.698Z,0.00
2022-09-23T04:26:31.598Z,0.00
2022-09-23T04:27:37.483Z,0.00
2022-09-23T04:28:34.260Z,0.00
2022-09-23T04:29:34.159Z,0.00
2022-09-23T04:30:35.049Z,0.00
2022-09-23T04:31:36.018Z,0.00
2022-09-23T04:32:36.851Z,0.00
2022-09-23T04:33:37.735Z,0.00
2022-09-23T04:34:38.627Z,0.00
2022-09-23T04:35:40.487Z,0.00
2022-09-23T04:36:40.382Z,0.00
2022-09-23T04:37:41.271Z,0.00
2022-09-23T04:38:42.146Z,0.00
2022-09-23T04:39:43.065Z,0.00
2022-09-23T04:40:44.010Z,0.00
2022-09-23T04:41:44.816Z,0.00
2022-09-23T04:42:45.697Z,0.00
2022-09-23T04:43:46.584Z,0.00
2022-09-23T04:44:47.430Z,0.00
2022-09-23T04:45:48.263Z,0.00
2022-09-23T04:46:49.250Z,0.00
2022-09-23T04:47:50.126Z,0.00
2022-09-23T04:48:50.967Z,0.00
2022-09-23T04:49:51.802Z,0.00
2022-09-23T04:50:52.688Z,0.00
2022-09-23T04:51:53.587Z,0.00
2022-09-23T04:52:54.459Z,0.00
2022-09-23T04:53:55.359Z,0.00
2022-09-23T04:54:56.334Z,0.00
2022-09-23T04:55:57.140Z,0.00
2022-09-23T04:56:57.982Z,0.00
2022-09-23T04:57:58.831Z,0.00
2022-09-23T04:58:59.707Z,0.00
2022-09-23T05:00:00.491Z,0.00
2022-09-23T05:01:05.098Z,0.00
2022-09-23T05:02:02.222Z,0.00
2022-09-23T05:03:03.033Z,0.00
2022-09-23T05:04:03.861Z,0.00
2022-09-23T05:05:04.696Z,0.00
2022-09-23T05:06:05.521Z,0.00
2022-09-23T05:07:06.348Z,0.00
2022-09-23T05:08:07.192Z,0.00
2022-09-23T05:09:08.277Z,0.00
2022-09-23T05:10:08.680Z,0.00
2022-09-23T05:11:09.495Z,0.00
2022-09-23T05:12:10.319Z,0.00
2022-09-23T05:13:11.151Z,0.00
2022-09-23T05:14:11.989Z,0.00
2022-09-23T05:15:12.818Z,0.00
2022-09-23T05:16:13.733Z,0.00
2022-09-23T05:17:14.532Z,0.00
2022-09-23T05:18:20.170Z,0.00
2022-09-23T05:19:17.094Z,0.00
2022-09-23T05:20:16.923Z,0.00
2022-09-23T05:21:17.753Z,0.00
2022-09-23T05:22:18.587Z,0.00
2022-09-23T05:23:19.416Z,0.00
2022-09-23T05:24:20.259Z,0.00
2022-09-23T05:25:21.127Z,0.00
2022-09-23T05:26:21.934Z,0.00
2022-09-23T05:27:22.763Z,0.00
2022-09-23T05:28:23.586Z,0.00
2022-09-23T05:29:24.421Z,0.00
2022-09-23T05:30:25.268Z,0.00
2022-09-23T05:31:26.198Z,0.00
2022-09-23T05:32:26.985Z,0.00
2022-09-23T05:33:27.813Z,0.00
2022-09-23T05:34:28.642Z,0.00
2022-09-23T05:35:29.471Z,0.00
2022-09-23T05:36:33.213Z,0.00
2022-09-23T05:37:32.019Z,0.00
2022-09-23T05:38:31.848Z,0.00
2022-09-23T05:39:32.687Z,0.00
2022-09-23T05:40:33.621Z,0.00
2022-09-23T05:41:34.450Z,0.00
2022-09-23T05:42:35.278Z,0.00
2022-09-23T05:43:36.119Z,0.00
2022-09-23T05:44:36.947Z,0.00
2022-09-23T05:45:37.787Z,0.00
2022-09-23T05:46:38.713Z,0.00
2022-09-23T05:47:39.528Z,0.00
2022-09-23T05:48:40.358Z,0.00
2022-09-23T05:49:58.728Z,0.00
2022-09-23T05:50:42.922Z,0.00
2022-09-23T05:51:42.753Z,0.00
2022-09-23T05:52:43.586Z,0.00
2022-09-23T05:53:44.431Z,0.00
2022-09-23T05:54:45.265Z,0.00
2022-09-23T05:55:46.128Z,0.00
2022-09-23T05:56:46.950Z,0.00
2022-09-23T05:57:47.783Z,0.00
2022-09-23T05:58:48.622Z,0.00
2022-09-23T05:59:49.452Z,0.00
2022-09-23T06:00:50.282Z,0.00
2022-09-23T06:01:55.703Z,0.00
2022-09-23T06:02:52.907Z,0.00
2022-09-23T06:03:52.756Z,0.00
2022-09-23T06:04:53.571Z,0.00
2022-09-23T06:05:54.408Z,0.00
2022-09-23T06:06:55.245Z,5.62
2022-09-23T06:07:56.069Z,5.62
2022-09-23T06:08:56.909Z,5.62
2022-09-23T06:09:57.740Z,5.62
2022-09-23T06:10:58.591Z,5.62
2022-09-23T06:11:59.406Z,5.62
2022-09-23T06:13:00.236Z,5.62
2022-09-23T06:14:01.261Z,11.25
2022-09-23T06:15:01.631Z,11.25
2022-09-23T06:16:02.502Z,11.25
2022-09-23T06:17:03.289Z,11.25
2022-09-23T06:18:04.118Z,11.25
2022-09-23T06:19:05.793Z,16.88
2022-09-23T06:20:05.670Z,16.88
2022-09-23T06:21:06.490Z,11.25
2022-09-23T06:22:07.358Z,16.88
2022-09-23T06:23:10.318Z,11.25
2022-09-23T06:24:09.035Z,5.62
2022-09-23T06:25:09.876Z,22.50
2022-09-23T06:26:10.711Z,16.88
2022-09-23T06:27:11.530Z,11.25
2022-09-23T06:28:12.349Z,11.25
2022-09-23T06:29:13.196Z,22.50
2022-09-23T06:30:14.018Z,22.50
2022-09-23T06:31:14.877Z,22.50
2022-09-23T06:32:15.669Z,22.50
2022-09-23T06:33:18.935Z,28.12
2022-09-23T06:34:18.552Z,33.75
2022-09-23T06:35:26.307Z,33.75
2022-09-23T06:36:35.618Z,22.50
2022-09-23T06:37:21.005Z,33.75
2022-09-23T06:38:20.364Z,39.38
2022-09-23T06:39:21.197Z,22.50
2022-09-23T06:40:22.100Z,22.50
2022-09-23T06:41:22.888Z,28.12
2022-09-23T06:42:23.697Z,28.12
2022-09-23T06:43:24.517Z,33.75
2022-09-23T06:44:25.365Z,45.00
2022-09-23T06:45:26.188Z,73.12
2022-09-23T06:46:27.065Z,90.00
2022-09-23T06:47:27.856Z,84.38
2022-09-23T06:48:28.688Z,129.38
2022-09-23T06:49:29.518Z,129.38
2022-09-23T06:50:30.368Z,95.62
2022-09-23T06:51:31.182Z,101.25
2022-09-23T06:52:32.011Z,151.88
2022-09-23T06:53:32.839Z,202.50
2022-09-23T06:54:33.681Z,174.38
2022-09-23T06:55:34.500Z,281.25
2022-09-23T06:56:39.066Z,225.00
2022-09-23T06:57:35.850Z,354.38
2022-09-23T06:58:36.681Z,399.38
2022-09-23T06:59:37.526Z,393.75
2022-09-23T07:00:38.352Z,303.75
2022-09-23T07:01:39.430Z,275.62
2022-09-23T07:02:40.024Z,298.12
2022-09-23T07:03:40.825Z,410.62
2022-09-23T07:04:41.664Z,416.25
2022-09-23T07:05:42.495Z,421.88
2022-09-23T07:06:43.328Z,360.00
2022-09-23T07:07:44.156Z,337.50
2022-09-23T07:08:45.005Z,371.25
2022-09-23T07:09:45.839Z,393.75
2022-09-23T07:10:46.657Z,371.25
2022-09-23T07:11:47.524Z,365.62
2022-09-23T07:12:48.326Z,393.75
2022-09-23T07:13:49.137Z,382.50
2022-09-23T07:14:49.987Z,376.88
2022-09-23T07:15:50.857Z,315.00
2022-09-23T07:16:51.667Z,354.38
2022-09-23T07:17:52.497Z,365.62
2022-09-23T07:18:53.335Z,331.88
2022-09-23T07:19:54.170Z,348.75
2022-09-23T07:20:55.007Z,343.12
2022-09-23T07:21:55.828Z,337.50
2022-09-23T07:22:56.659Z,326.25
2022-09-23T07:23:57.498Z,320.62
2022-09-23T07:24:58.328Z,315.00
2022-09-23T07:25:59.157Z,303.75
2022-09-23T07:27:00.012Z,298.12
2022-09-23T07:28:00.815Z,286.88
2022-09-23T07:29:01.656Z,281.25
2022-09-23T07:30:02.500Z,270.00
2022-09-23T07:31:03.451Z,264.38
2022-09-23T07:32:13.149Z,258.75
2022-09-23T07:33:17.944Z,247.50
2022-09-23T07:34:06.735Z,241.88
2022-09-23T07:35:06.548Z,241.88
2022-09-23T07:36:07.369Z,225.00
2022-09-23T07:37:08.208Z,219.38
2022-09-23T07:38:09.050Z,213.75
2022-09-23T07:39:09.891Z,208.12
2022-09-23T07:40:10.780Z,208.12
2022-09-23T07:41:11.545Z,202.50
2022-09-23T07:42:12.409Z,196.88
2022-09-23T07:43:13.209Z,191.25
2022-09-23T07:44:14.051Z,191.25
2022-09-23T07:45:14.909Z,191.25
2022-09-23T07:46:15.781Z,180.00
2022-09-23T07:47:16.570Z,180.00
2022-09-23T07:48:17.391Z,185.62
2022-09-23T07:49:18.250Z,185.62
2022-09-23T07:50:19.071Z,185.62
2022-09-23T07:51:19.897Z,185.62
2022-09-23T07:52:20.718Z,191.25
2022-09-23T07:53:21.546Z,208.12
2022-09-23T07:54:22.387Z,202.50
2022-09-23T07:55:23.216Z,225.00
2022-09-23T07:56:24.047Z,230.62
2022-09-23T07:57:24.899Z,236.25
2022-09-23T07:58:25.698Z,258.75
2022-09-23T07:59:26.537Z,286.88
2022-09-23T08:00:27.367Z,382.50
2022-09-23T08:01:28.224Z,815.62
2022-09-23T08:02:29.069Z,1130.62
2022-09-23T08:03:29.855Z,1158.75
2022-09-23T08:04:30.687Z,1147.50
2022-09-23T08:05:31.515Z,1063.12
2022-09-23T08:06:32.342Z,1113.75
2022-09-23T08:07:33.165Z,1209.38
2022-09-23T08:08:33.997Z,1271.25
2022-09-23T08:09:34.837Z,1170.00
2022-09-23T08:10:35.667Z,1440.00
2022-09-23T08:11:36.498Z,1468.12
2022-09-23T08:12:37.398Z,1327.50
2022-09-23T08:13:38.160Z,1276.88
2022-09-23T08:14:38.995Z,1299.38
2022-09-23T08:15:39.869Z,1310.62
2022-09-23T08:16:40.664Z,1445.62
2022-09-23T08:17:41.493Z,1372.50
2022-09-23T08:18:42.313Z,601.88
2022-09-23T08:19:43.151Z,56.25
2022-09-23T08:20:47.056Z,39.38
2022-09-23T08:21:44.903Z,39.38
2022-09-23T08:22:45.730Z,39.38
2022-09-23T08:23:46.552Z,33.75
2022-09-23T08:24:47.392Z,33.75
2022-09-23T08:25:48.242Z,33.75
2022-09-23T08:26:49.050Z,33.75
2022-09-23T08:27:49.897Z,33.75
2022-09-23T08:28:50.708Z,33.75
2022-09-23T08:29:51.547Z,33.75
2022-09-23T08:30:52.427Z,33.75
2022-09-23T08:31:53.207Z,33.75
2022-09-23T08:32:54.050Z,33.75
2022-09-23T08:33:54.866Z,33.75
2022-09-23T08:34:55.706Z,33.75
2022-09-23T08:35:56.535Z,33.75
2022-09-23T08:36:57.366Z,33.75
2022-09-23T08:37:58.194Z,33.75
2022-09-23T08:38:59.025Z,33.75
2022-09-23T08:39:59.867Z,33.75
2022-09-23T08:41:00.698Z,33.75
2022-09-23T08:42:01.529Z,33.75
2022-09-23T08:43:02.377Z,33.75
2022-09-23T08:44:03.295Z,33.75
2022-09-23T08:45:04.082Z,33.75
2022-09-23T08:46:04.948Z,33.75
2022-09-23T08:47:05.748Z,33.75
2022-09-23T08:48:09.599Z,33.75
2022-09-23T08:49:08.304Z,33.75
2022-09-23T08:50:08.135Z,33.75
2022-09-23T08:51:08.955Z,28.12
2022-09-23T08:52:09.784Z,28.12
2022-09-23T08:53:10.603Z,28.12
2022-09-23T08:54:11.441Z,28.12
2022-09-23T08:55:12.261Z,28.12
2022-09-23T08:56:13.098Z,28.12
2022-09-23T08:57:13.908Z,28.12
2022-09-23T08:58:24.971Z,28.12
2022-09-23T08:59:16.470Z,28.12
2022-09-23T09:00:16.304Z,28.12
2022-09-23T09:01:17.204Z,28.12
2022-09-23T09:02:18.050Z,28.12
2022-09-23T09:03:18.840Z,28.12
2022-09-23T09:04:19.679Z,28.12
2022-09-23T09:05:20.508Z,28.12
2022-09-23T09:06:21.339Z,28.12
2022-09-23T09:07:36.201Z,28.12
2022-09-23T09:08:23.872Z,28.12
2022-09-23T09:09:23.702Z,28.12
2022-09-23T09:10:24.531Z,28.12
2022-09-23T09:11:25.363Z,28.12
2022-09-23T09:12:26.191Z,28.12
2022-09-23T09:13:27.040Z,28.12
2022-09-23T09:14:27.860Z,28.12
2022-09-23T09:15:28.792Z,28.12
2022-09-23T09:16:55.387Z,28.12
2022-09-23T09:17:34.932Z,28.12
2022-09-23T09:18:30.916Z,28.12
2022-09-23T09:19:31.743Z,28.12
2022-09-23T09:20:32.573Z,28.12
2022-09-23T09:21:33.405Z,28.12
2022-09-23T09:22:34.275Z,28.12
2022-09-23T09:23:35.073Z,28.12
2022-09-23T09:24:35.905Z,28.12
2022-09-23T09:25:36.732Z,28.12
2022-09-23T09:26:37.556Z,28.12
2022-09-23T09:27:38.394Z,28.12
2022-09-23T09:28:39.238Z,28.12
2022-09-23T09:29:40.318Z,28.12
2022-09-23T09:30:41.164Z,28.12
2022-09-23T09:31:41.629Z,28.12
2022-09-23T09:32:42.460Z,28.12
2022-09-23T09:33:43.294Z,28.12
2022-09-23T09:34:44.131Z,28.12
2022-09-23T09:35:44.963Z,28.12
2022-09-23T09:36:45.790Z,28.12
2022-09-23T09:37:46.623Z,28.12
2022-09-23T09:38:47.450Z,28.12
2022-09-23T09:39:48.290Z,28.12
2022-09-23T09:40:49.153Z,28.12
2022-09-23T09:41:49.953Z,28.12
2022-09-23T09:42:50.782Z,28.12
2022-09-23T09:43:51.820Z,22.50
2022-09-23T09:44:52.574Z,22.50
2022-09-23T09:45:57.529Z,22.50
2022-09-23T09:46:54.008Z,22.50
2022-09-23T09:47:54.793Z,22.50
2022-09-23T09:48:55.632Z,22.50
2022-09-23T09:49:56.464Z,22.50
2022-09-23T09:50:57.282Z,22.50
2022-09-23T09:51:58.115Z,22.50
2022-09-23T09:52:58.887Z,22.50
2022-09-23T09:53:59.725Z,22.50
2022-09-23T09:55:00.554Z,22.50
2022-09-23T09:56:04.910Z,22.50
2022-09-23T09:57:02.255Z,22.50
2022-09-23T09:58:03.083Z,22.50
2022-09-23T09:59:03.929Z,22.50
2022-09-23T10:00:04.742Z,22.50
2022-09-23T10:01:05.607Z,22.50
2022-09-23T10:02:06.389Z,22.50
2022-09-23T10:03:07.219Z,22.50
2022-09-23T10:04:08.153Z,22.50
2022-09-23T10:05:08.958Z,22.50
2022-09-23T10:06:09.789Z,22.50
2022-09-23T10:07:10.618Z,22.50
2022-09-23T10:08:11.446Z,22.50
2022-09-23T10:09:12.286Z,22.50
2022-09-23T10:10:28.861Z,22.50
2022-09-23T10:11:14.828Z,22.50
2022-09-23T10:12:14.657Z,22.50
2022-09-23T10:13:15.494Z,22.50
2022-09-23T10:14:16.346Z,22.50
2022-09-23T10:15:17.147Z,22.50
2022-09-23T10:16:18.019Z,22.50
2022-09-23T10:17:18.807Z,22.50
2022-09-23T10:18:19.709Z,22.50
2022-09-23T10:19:20.487Z,22.50
2022-09-23T10:20:21.317Z,22.50
2022-09-23T10:21:27.530Z,22.50
2022-09-23T10:22:23.861Z,22.50
2022-09-23T10:23:23.691Z,28.12
2022-09-23T10:24:24.529Z,22.50
2022-09-23T10:25:25.349Z,22.50
2022-09-23T10:26:26.202Z,22.50
2022-09-23T10:27:27.021Z,22.50
2022-09-23T10:28:27.851Z,22.50
2022-09-23T10:29:28.807Z,22.50
2022-09-23T10:30:29.585Z,22.50
2022-09-23T10:31:30.389Z,22.50
2022-09-23T10:32:31.218Z,22.50
2022-09-23T10:33:32.054Z,22.50
2022-09-23T10:34:32.888Z,22.50
2022-09-23T10:35:33.717Z,22.50
2022-09-23T10:36:34.547Z,22.50
2022-09-23T10:37:35.397Z,22.50
2022-09-23T10:38:36.229Z,22.50
2022-09-23T10:39:37.061Z,22.50
2022-09-23T10:40:38.032Z,22.50
2022-09-23T10:41:38.873Z,22.50
2022-09-23T10:42:39.701Z,22.50
2022-09-23T10:43:40.521Z,22.50
2022-09-23T10:44:41.381Z,22.50
2022-09-23T10:45:43.368Z,22.50
2022-09-23T10:46:42.802Z,22.50
2022-09-23T10:47:43.572Z,22.50
2022-09-23T10:48:44.401Z,22.50
2022-09-23T10:49:45.242Z,22.50
2022-09-23T10:50:46.075Z,22.50
2022-09-23T10:51:46.890Z,22.50
2022-09-23T10:52:47.719Z,22.50
2022-09-23T10:53:48.549Z,22.50
2022-09-23T10:54:49.393Z,22.50
2022-09-23T10:55:50.223Z,22.50
2022-09-23T10:56:51.053Z,22.50
2022-09-23T10:57:51.886Z,22.50
2022-09-23T10:58:52.713Z,22.50
2022-09-23T10:59:53.683Z,22.50
2022-09-23T11:00:54.454Z,22.50
2022-09-23T11:01:55.331Z,22.50
2022-09-23T11:02:56.101Z,22.50
2022-09-23T11:03:56.931Z,22.50
2022-09-23T11:04:57.814Z,22.50
2022-09-23T11:05:58.616Z,22.50
2022-09-23T11:06:59.443Z,22.50
2022-09-23T11:08:00.264Z,22.50
2022-09-23T11:09:01.102Z,22.50
2022-09-23T11:10:01.937Z,22.50
2022-09-23T11:11:02.762Z,22.50
2022-09-23T11:12:03.592Z,22.50
2022-09-23T11:13:04.420Z,22.50
2022-09-23T11:14:05.381Z,22.50
2022-09-23T11:15:05.763Z,22.50
2022-09-23T11:16:06.560Z,22.50
2022-09-23T11:17:07.538Z,22.50
2022-09-23T11:18:08.318Z,22.50
2022-09-23T11:19:09.159Z,22.50
2022-09-23T11:20:09.976Z,22.50
2022-09-23T11:21:10.804Z,22.50
2022-09-23T11:22:11.636Z,28.12
2022-09-23T11:23:12.465Z,22.50
2022-09-23T11:24:13.297Z,28.12
2022-09-23T11:25:14.125Z,28.12
2022-09-23T11:26:14.955Z,28.12
2022-09-23T11:27:15.786Z,28.12
2022-09-23T11:28:16.604Z,28.12
2022-09-23T11:29:17.443Z,28.12
2022-09-23T11:30:18.280Z,28.12
2022-09-23T11:31:19.251Z,22.50
2022-09-23T11:32:20.042Z,28.12
2022-09-23T11:33:20.872Z,22.50
2022-09-23T11:34:21.927Z,22.50
2022-09-23T11:35:22.251Z,22.50
2022-09-23T11:36:23.082Z,22.50
2022-09-23T11:37:23.909Z,22.50
2022-09-23T11:38:24.742Z,22.50
2022-09-23T11:39:25.579Z,22.50
2022-09-23T11:40:26.476Z,22.50
2022-09-23T11:41:27.267Z,22.50
2022-09-23T11:42:28.089Z,28.12
2022-09-23T11:43:28.916Z,28.12
2022-09-23T11:44:29.756Z,22.50
2022-09-23T11:45:30.760Z,28.12
2022-09-23T11:46:31.604Z,22.50
2022-09-23T11:47:35.333Z,22.50
2022-09-23T11:48:34.099Z,22.50
2022-09-23T11:49:33.962Z,22.50
2022-09-23T11:50:34.809Z,22.50
2022-09-23T11:51:35.615Z,22.50
2022-09-23T11:52:36.446Z,22.50
2022-09-23T11:53:37.283Z,22.50
2022-09-23T11:54:38.114Z,22.50
2022-09-23T11:55:43.424Z,22.50
2022-09-23T11:56:44.362Z,22.50
2022-09-23T11:57:48.503Z,22.50
2022-09-23T11:58:43.816Z,22.50
2022-09-23T11:59:42.932Z,22.50
2022-09-23T12:00:46.617Z,22.50
2022-09-23T12:01:45.812Z,22.50
2022-09-23T12:02:45.781Z,22.50
2022-09-23T12:03:45.305Z,22.50
2022-09-23T12:04:55.887Z,28.12
2022-09-23T12:05:47.583Z,22.50
2022-09-23T12:06:46.914Z,28.12
2022-09-23T12:07:47.930Z,28.12
2022-09-23T12:08:48.700Z,28.12
2022-09-23T12:09:58.154Z,28.12
2022-09-23T12:10:51.254Z,28.12
2022-09-23T12:11:51.082Z,28.12
2022-09-23T12:12:51.908Z,28.12
2022-09-23T12:13:52.738Z,28.12
2022-09-23T12:14:53.597Z,28.12
2022-09-23T12:15:54.445Z,28.12
2022-09-23T12:16:55.346Z,28.12
2022-09-23T12:17:56.202Z,28.12
2022-09-23T12:18:57.039Z,28.12
2022-09-23T12:19:57.876Z,28.12
2022-09-23T12:20:58.693Z,28.12
2022-09-23T12:21:59.523Z,28.12
2022-09-23T12:23:00.350Z,28.12
2022-09-23T12:24:01.170Z,28.12
2022-09-23T12:25:02.012Z,28.12
2022-09-23T12:26:02.840Z,28.12
2022-09-23T12:27:03.661Z,28.12
2022-09-23T12:28:04.490Z,28.12
2022-09-23T12:29:05.319Z,28.12
2022-09-23T12:30:06.166Z,22.50
2022-09-23T12:31:07.092Z,28.12
2022-09-23T12:32:07.898Z,28.12
2022-09-23T12:33:08.729Z,22.50
2022-09-23T12:34:09.558Z,22.50
2022-09-23T12:35:10.398Z,22.50
2022-09-23T12:36:11.244Z,22.50
2022-09-23T12:37:12.070Z,22.50
2022-09-23T12:38:12.898Z,22.50
2022-09-23T12:39:13.718Z,22.50
2022-09-23T12:40:14.602Z,22.50
2022-09-23T12:41:15.386Z,22.50
2022-09-23T12:42:16.214Z,22.50
2022-09-23T12:43:17.045Z,22.50
2022-09-23T12:44:17.873Z,22.50
2022-09-23T12:45:18.726Z,28.12
2022-09-23T12:46:19.690Z,28.12
2022-09-23T12:47:20.508Z,22.50
2022-09-23T12:48:21.336Z,28.12
2022-09-23T12:49:22.166Z,28.12
2022-09-23T12:50:24.499Z,28.12
2022-09-23T12:51:23.859Z,28.12
2022-09-23T12:52:24.687Z,28.12
2022-09-23T12:53:25.519Z,28.12
2022-09-23T12:54:26.348Z,28.12
2022-09-23T12:55:27.178Z,22.50
2022-09-23T12:56:28.006Z,22.50
2022-09-23T12:57:28.835Z,22.50
2022-09-23T12:58:29.665Z,22.50
2022-09-23T12:59:30.498Z,22.50
2022-09-23T13:00:34.213Z,16.88
2022-09-23T13:01:32.365Z,22.50
2022-09-23T13:02:33.301Z,16.88
2022-09-23T13:03:34.084Z,16.88
2022-09-23T13:04:34.913Z,22.50
2022-09-23T13:05:35.772Z,16.88
2022-09-23T13:06:36.603Z,22.50
2022-09-23T13:07:37.433Z,22.50
2022-09-23T13:08:38.260Z,16.88
2022-09-23T13:09:39.090Z,22.50
2022-09-23T13:10:39.928Z,16.88
2022-09-23T13:11:40.769Z,16.88
2022-09-23T13:12:41.597Z,16.88